Volgo-balt 229 — UHZF — position and weather

sailwx.info

Track history (hours):
 
Tides and Currents Weather Stations Pressure Air Temp Water Temp Dewpoint Dewpoint Depression Visibility Wind Speed Wind Dir Waves Ship Positions

Volgo-balt 229

Last reported at 2014-Sep-16 17:34 UTC. Time now 2014-Sep-16 23:30 UTC.
Position N 57°38' E 017°29'.

Length 113 m; draft 2.6 m.

Type: Ship. MMSI: 273336300.

Date/timePositionNaut miles runAvg speedWind from/ knotsBaromVisibWave heightAir tempDewpointWater temp
2014-Sep-16 17:34N 57°38' E 017°29'8 8.1
2014-Sep-16 16:34N 57°34' E 017°17'8 7.9
2014-Sep-16 15:34N 57°29' E 017°05'8 7.5
2014-Sep-16 14:34N 57°23' E 016°56'8 7.7
2014-Sep-16 13:33N 57°17' E 016°47'8 7.9
2014-Sep-16 12:34N 57°11' E 016°38'6 5.6
2014-Sep-16 11:32N 57°06' E 016°33'0 0.0
2014-Sep-16 10:32N 57°06' E 016°33'0 0.0
2014-Sep-16 09:32N 57°06' E 016°33'0 0.0
2014-Sep-16 08:32N 57°06' E 016°33'0 0.0
2014-Sep-16 07:32N 57°06' E 016°33'0 0.0
2014-Sep-16 06:32N 57°06' E 016°33'0 0.0
2014-Sep-16 05:32N 57°06' E 016°33'0 0.0
2014-Sep-16 04:32N 57°06' E 016°33'0 0.0
2014-Sep-16 03:32N 57°06' E 016°33'0 0.0
2014-Sep-16 02:32N 57°06' E 016°33'0 0.0
2014-Sep-16 01:32N 57°06' E 016°33'0 0.0
2014-Sep-16 00:32N 57°06' E 016°33'0 0.0
2014-Sep-15 23:32N 57°06' E 016°33'0 0.0
2014-Sep-15 22:29N 57°06' E 016°33'0 0.0
2014-Sep-15 21:32N 57°06' E 016°33'0 0.0
2014-Sep-15 20:32N 57°06' E 016°33'0 0.0
2014-Sep-15 19:32N 57°06' E 016°33'0 0.0
2014-Sep-15 18:32N 57°06' E 016°33'0 0.0
2014-Sep-15 17:29N 57°06' E 016°33'0 0.0
2014-Sep-15 16:32N 57°06' E 016°33'0 0.0
2014-Sep-15 15:32N 57°06' E 016°33'0 0.0
2014-Sep-15 14:32N 57°06' E 016°33'0 0.0
2014-Sep-15 13:32N 57°06' E 016°33'0 0.0
2014-Sep-15 12:32N 57°06' E 016°33'0 0.0
2014-Sep-15 11:29N 57°06' E 016°33'0 0.0
2014-Sep-15 10:32N 57°06' E 016°33'0 0.1
2014-Sep-15 09:32N 57°06' E 016°33'0 0.0
2014-Sep-15 08:32N 57°06' E 016°33'0 0.0
2014-Sep-15 07:32N 57°06' E 016°33'0 0.0
2014-Sep-15 06:32N 57°06' E 016°33'0 0.0
2014-Sep-15 05:32N 57°06' E 016°33'0 0.0
2014-Sep-15 04:32N 57°06' E 016°33'0 0.0
2014-Sep-15 03:32N 57°06' E 016°33'0 0.0
2014-Sep-15 02:32N 57°06' E 016°33'0 0.0
2014-Sep-15 01:32N 57°06' E 016°33'0 0.0
2014-Sep-15 00:32N 57°06' E 016°33'0 0.0
2014-Sep-14 23:32N 57°06' E 016°33'0 0.0
2014-Sep-14 22:32N 57°06' E 016°33'0 0.0
2014-Sep-14 21:32N 57°06' E 016°33'0 0.0
2014-Sep-14 20:32N 57°06' E 016°33'0 0.0
2014-Sep-14 19:32N 57°06' E 016°33'0 0.0
2014-Sep-14 18:32N 57°06' E 016°33'0 0.0
2014-Sep-14 17:33N 57°06' E 016°33'0 0.0
2014-Sep-14 16:33N 57°06' E 016°33'3 3.0
2014-Sep-14 15:33N 57°09' E 016°34'1 1.4
2014-Sep-14 14:31N 57°10' E 016°36'0 0.0
2014-Sep-14 13:31N 57°10' E 016°36'0 0.0
2014-Sep-14 12:31N 57°10' E 016°36'0 0.0
2014-Sep-14 11:31N 57°10' E 016°36'0 0.0
2014-Sep-14 10:31N 57°10' E 016°36'0 0.0
2014-Sep-14 09:31N 57°10' E 016°36'0 0.0
2014-Sep-14 08:31N 57°10' E 016°36'0 0.0
2014-Sep-14 07:31N 57°10' E 016°36'0 0.0
2014-Sep-14 06:31N 57°10' E 016°36'0 0.0
2014-Sep-14 05:31N 57°10' E 016°36'0 0.0
2014-Sep-14 04:31N 57°10' E 016°36'5 5.0
2014-Sep-14 03:33N 57°14' E 016°42'8 7.9
2014-Sep-14 02:33N 57°20' E 016°51'8 7.8
2014-Sep-14 01:33N 57°26' E 016°59'238 7.7
2014-Sep-12 18:27N 59°38' E 023°19'7 7.5
2014-Sep-12 17:33N 59°39' E 023°32'8 7.3
2014-Sep-12 16:29N 59°42' E 023°47'7 7.3
2014-Sep-12 15:32N 59°43' E 024°00'11 7.7
2014-Sep-12 14:09N 59°46' E 024°21'4 7.4
2014-Sep-12 13:32N 59°47' E 024°29'62 7.6
2014-Sep-12 05:25N 60°01' E 026°30'111 7.2
2014-Sep-11 14:04N 59°53' E 030°11'2 4.0
2014-Sep-11 13:31N 59°55' E 030°14'1 0.3
2014-Sep-11 09:33N 59°55' E 030°16'1 0.4
2014-Sep-11 07:28N 59°56' E 030°17'0 0.0
2014-Sep-11 05:13N 59°56' E 030°17'0 0.0
2014-Sep-11 04:31N 59°56' E 030°17'0 0.0
2014-Sep-11 03:31N 59°56' E 030°17'0 0.0
2014-Sep-11 02:31N 59°56' E 030°17'0 0.0
2014-Sep-11 01:31N 59°56' E 030°17'0 0.0
2014-Sep-11 00:31N 59°56' E 030°17'3 2.9
2014-Sep-10 23:33N 59°57' E 030°22'  
Track history (hours):
 
Tides and Currents Weather Stations Pressure Air Temp Water Temp Dewpoint Dewpoint Depression Visibility Wind Speed Wind Dir Waves Ship Positions

Volgo-balt 229

Last reported at 2014-Sep-16 17:34 UTC. Time now 2014-Sep-16 23:30 UTC.
Position N 57°38' E 017°29'.

Length 113 m; draft 2.6 m.

Type: Ship. MMSI: 273336300.

Date/timePositionNaut miles runAvg speedWind from/ knotsBaromVisibWave heightAir tempDewpointWater temp
2014-Sep-16 17:34N 57°38' E 017°29'8 8.1
2014-Sep-16 16:34N 57°34' E 017°17'8 7.9
2014-Sep-16 15:34N 57°29' E 017°05'8 7.5
2014-Sep-16 14:34N 57°23' E 016°56'8 7.7
2014-Sep-16 13:33N 57°17' E 016°47'8 7.9
2014-Sep-16 12:34N 57°11' E 016°38'6 5.6
2014-Sep-16 11:32N 57°06' E 016°33'0 0.0
2014-Sep-16 10:32N 57°06' E 016°33'0 0.0
2014-Sep-16 09:32N 57°06' E 016°33'0 0.0
2014-Sep-16 08:32N 57°06' E 016°33'0 0.0
2014-Sep-16 07:32N 57°06' E 016°33'0 0.0
2014-Sep-16 06:32N 57°06' E 016°33'0 0.0
2014-Sep-16 05:32N 57°06' E 016°33'0 0.0
2014-Sep-16 04:32N 57°06' E 016°33'0 0.0
2014-Sep-16 03:32N 57°06' E 016°33'0 0.0
2014-Sep-16 02:32N 57°06' E 016°33'0 0.0
2014-Sep-16 01:32N 57°06' E 016°33'0 0.0
2014-Sep-16 00:32N 57°06' E 016°33'0 0.0
2014-Sep-15 23:32N 57°06' E 016°33'0 0.0
2014-Sep-15 22:29N 57°06' E 016°33'0 0.0
2014-Sep-15 21:32N 57°06' E 016°33'0 0.0
2014-Sep-15 20:32N 57°06' E 016°33'0 0.0
2014-Sep-15 19:32N 57°06' E 016°33'0 0.0
2014-Sep-15 18:32N 57°06' E 016°33'0 0.0
2014-Sep-15 17:29N 57°06' E 016°33'0 0.0
2014-Sep-15 16:32N 57°06' E 016°33'0 0.0
2014-Sep-15 15:32N 57°06' E 016°33'0 0.0
2014-Sep-15 14:32N 57°06' E 016°33'0 0.0
2014-Sep-15 13:32N 57°06' E 016°33'0 0.0
2014-Sep-15 12:32N 57°06' E 016°33'0 0.0
2014-Sep-15 11:29N 57°06' E 016°33'0 0.0
2014-Sep-15 10:32N 57°06' E 016°33'0 0.1
2014-Sep-15 09:32N 57°06' E 016°33'0 0.0
2014-Sep-15 08:32N 57°06' E 016°33'0 0.0
2014-Sep-15 07:32N 57°06' E 016°33'0 0.0
2014-Sep-15 06:32N 57°06' E 016°33'0 0.0
2014-Sep-15 05:32N 57°06' E 016°33'0 0.0
2014-Sep-15 04:32N 57°06' E 016°33'0 0.0
2014-Sep-15 03:32N 57°06' E 016°33'0 0.0
2014-Sep-15 02:32N 57°06' E 016°33'0 0.0
2014-Sep-15 01:32N 57°06' E 016°33'0 0.0
2014-Sep-15 00:32N 57°06' E 016°33'0 0.0
2014-Sep-14 23:32N 57°06' E 016°33'0 0.0
2014-Sep-14 22:32N 57°06' E 016°33'0 0.0
2014-Sep-14 21:32N 57°06' E 016°33'0 0.0
2014-Sep-14 20:32N 57°06' E 016°33'0 0.0
2014-Sep-14 19:32N 57°06' E 016°33'0 0.0
2014-Sep-14 18:32N 57°06' E 016°33'0 0.0
2014-Sep-14 17:33N 57°06' E 016°33'0 0.0
2014-Sep-14 16:33N 57°06' E 016°33'3 3.0
2014-Sep-14 15:33N 57°09' E 016°34'1 1.4
2014-Sep-14 14:31N 57°10' E 016°36'0 0.0
2014-Sep-14 13:31N 57°10' E 016°36'0 0.0
2014-Sep-14 12:31N 57°10' E 016°36'0 0.0
2014-Sep-14 11:31N 57°10' E 016°36'0 0.0
2014-Sep-14 10:31N 57°10' E 016°36'0 0.0
2014-Sep-14 09:31N 57°10' E 016°36'0 0.0
2014-Sep-14 08:31N 57°10' E 016°36'0 0.0
2014-Sep-14 07:31N 57°10' E 016°36'0 0.0
2014-Sep-14 06:31N 57°10' E 016°36'0 0.0
2014-Sep-14 05:31N 57°10' E 016°36'0 0.0
2014-Sep-14 04:31N 57°10' E 016°36'5 5.0
2014-Sep-14 03:33N 57°14' E 016°42'8 7.9
2014-Sep-14 02:33N 57°20' E 016°51'8 7.8
2014-Sep-14 01:33N 57°26' E 016°59'238 7.7
2014-Sep-12 18:27N 59°38' E 023°19'7 7.5
2014-Sep-12 17:33N 59°39' E 023°32'8 7.3
2014-Sep-12 16:29N 59°42' E 023°47'7 7.3
2014-Sep-12 15:32N 59°43' E 024°00'11 7.7
2014-Sep-12 14:09N 59°46' E 024°21'4 7.4
2014-Sep-12 13:32N 59°47' E 024°29'62 7.6
2014-Sep-12 05:25N 60°01' E 026°30'111 7.2
2014-Sep-11 14:04N 59°53' E 030°11'2 4.0
2014-Sep-11 13:31N 59°55' E 030°14'1 0.3
2014-Sep-11 09:33N 59°55' E 030°16'1 0.4
2014-Sep-11 07:28N 59°56' E 030°17'0 0.0
2014-Sep-11 05:13N 59°56' E 030°17'0 0.0
2014-Sep-11 04:31N 59°56' E 030°17'0 0.0
2014-Sep-11 03:31N 59°56' E 030°17'0 0.0
2014-Sep-11 02:31N 59°56' E 030°17'0 0.0
2014-Sep-11 01:31N 59°56' E 030°17'0 0.0
2014-Sep-11 00:31N 59°56' E 030°17'3 2.9
2014-Sep-10 23:33N 59°57' E 030°22'  

Dump ship's entire track history